sensor_id;sensor_type;location;lat;lon;timestamp;P1;durP1;ratioP1;P2;durP2;ratioP2
16792;SDS011;8513;42.662;23.350;2023-04-15T00:00:13;5.20;;;3.03;;
16792;SDS011;8513;42.662;23.350;2023-04-15T00:02:39;4.47;;;3.10;;
16792;SDS011;8513;42.662;23.350;2023-04-15T00:05:05;4.10;;;2.60;;
16792;SDS011;8513;42.662;23.350;2023-04-15T00:07:31;3.40;;;2.77;;
16792;SDS011;8513;42.662;23.350;2023-04-15T00:09:57;2.93;;;2.30;;
16792;SDS011;8513;42.662;23.350;2023-04-15T00:12:23;3.57;;;2.60;;
16792;SDS011;8513;42.662;23.350;2023-04-15T00:14:51;4.43;;;2.43;;
16792;SDS011;8513;42.662;23.350;2023-04-15T00:17:17;4.30;;;3.10;;
16792;SDS011;8513;42.662;23.350;2023-04-15T00:19:43;4.38;;;2.80;;
16792;SDS011;8513;42.662;23.350;2023-04-15T00:22:12;4.27;;;3.07;;
16792;SDS011;8513;42.662;23.350;2023-04-15T00:24:38;3.57;;;2.67;;
16792;SDS011;8513;42.662;23.350;2023-04-15T00:27:03;4.37;;;3.07;;
16792;SDS011;8513;42.662;23.350;2023-04-15T00:29:29;3.38;;;2.92;;
16792;SDS011;8513;42.662;23.350;2023-04-15T00:31:55;4.78;;;2.83;;
16792;SDS011;8513;42.662;23.350;2023-04-15T00:34:23;3.65;;;3.17;;
16792;SDS011;8513;42.662;23.350;2023-04-15T00:36:49;5.47;;;3.30;;
16792;SDS011;8513;42.662;23.350;2023-04-15T00:39:15;7.97;;;2.80;;
16792;SDS011;8513;42.662;23.350;2023-04-15T00:41:41;4.05;;;2.90;;
16792;SDS011;8513;42.662;23.350;2023-04-15T00:44:08;4.60;;;3.15;;
16792;SDS011;8513;42.662;23.350;2023-04-15T00:46:34;4.47;;;3.42;;
16792;SDS011;8513;42.662;23.350;2023-04-15T00:49:02;5.78;;;3.38;;
16792;SDS011;8513;42.662;23.350;2023-04-15T00:51:28;4.57;;;3.17;;
16792;SDS011;8513;42.662;23.350;2023-04-15T00:53:55;4.45;;;3.33;;
16792;SDS011;8513;42.662;23.350;2023-04-15T00:56:22;4.03;;;3.55;;
16792;SDS011;8513;42.662;23.350;2023-04-15T00:58:48;3.78;;;3.25;;
16792;SDS011;8513;42.662;23.350;2023-04-15T01:01:15;5.50;;;4.03;;
16792;SDS011;8513;42.662;23.350;2023-04-15T01:03:45;5.60;;;4.28;;
16792;SDS011;8513;42.662;23.350;2023-04-15T01:06:11;4.10;;;3.70;;
16792;SDS011;8513;42.662;23.350;2023-04-15T01:08:38;4.90;;;3.80;;
16792;SDS011;8513;42.662;23.350;2023-04-15T01:11:03;5.03;;;4.00;;
16792;SDS011;8513;42.662;23.350;2023-04-15T01:13:29;5.47;;;4.13;;
16792;SDS011;8513;42.662;23.350;2023-04-15T01:15:57;6.67;;;4.40;;
16792;SDS011;8513;42.662;23.350;2023-04-15T01:18:22;6.20;;;4.37;;
16792;SDS011;8513;42.662;23.350;2023-04-15T01:20:48;5.70;;;4.50;;
16792;SDS011;8513;42.662;23.350;2023-04-15T01:23:14;6.87;;;4.53;;
16792;SDS011;8513;42.662;23.350;2023-04-15T01:25:41;4.57;;;4.18;;
16792;SDS011;8513;42.662;23.350;2023-04-15T01:28:08;7.30;;;4.20;;
16792;SDS011;8513;42.662;23.350;2023-04-15T01:30:34;6.07;;;4.80;;
16792;SDS011;8513;42.662;23.350;2023-04-15T01:33:00;4.80;;;4.23;;
16792;SDS011;8513;42.662;23.350;2023-04-15T01:35:26;6.40;;;4.72;;
16792;SDS011;8513;42.662;23.350;2023-04-15T01:37:52;6.87;;;4.50;;
16792;SDS011;8513;42.662;23.350;2023-04-15T01:40:18;6.07;;;4.93;;
16792;SDS011;8513;42.662;23.350;2023-04-15T01:42:44;5.73;;;4.77;;
16792;SDS011;8513;42.662;23.350;2023-04-15T01:45:10;5.93;;;4.65;;
16792;SDS011;8513;42.662;23.350;2023-04-15T01:47:37;6.63;;;5.10;;
16792;SDS011;8513;42.662;23.350;2023-04-15T01:50:02;7.23;;;4.13;;
16792;SDS011;8513;42.662;23.350;2023-04-15T01:52:28;5.65;;;4.45;;
16792;SDS011;8513;42.662;23.350;2023-04-15T01:54:54;5.43;;;4.30;;
16792;SDS011;8513;42.662;23.350;2023-04-15T01:57:19;4.80;;;3.83;;
16792;SDS011;8513;42.662;23.350;2023-04-15T01:59:45;5.27;;;3.40;;
16792;SDS011;8513;42.662;23.350;2023-04-15T02:02:10;4.43;;;3.73;;
16792;SDS011;8513;42.662;23.350;2023-04-15T02:04:36;5.23;;;3.50;;
16792;SDS011;8513;42.662;23.350;2023-04-15T02:07:02;4.83;;;3.30;;
16792;SDS011;8513;42.662;23.350;2023-04-15T02:09:27;4.33;;;3.47;;
16792;SDS011;8513;42.662;23.350;2023-04-15T02:11:53;6.30;;;3.13;;
16792;SDS011;8513;42.662;23.350;2023-04-15T02:14:18;5.25;;;3.65;;
16792;SDS011;8513;42.662;23.350;2023-04-15T02:16:44;5.80;;;3.80;;
16792;SDS011;8513;42.662;23.350;2023-04-15T02:19:09;6.23;;;3.30;;
16792;SDS011;8513;42.662;23.350;2023-04-15T02:21:35;4.70;;;3.57;;
16792;SDS011;8513;42.662;23.350;2023-04-15T02:24:00;4.23;;;3.10;;
16792;SDS011;8513;42.662;23.350;2023-04-15T02:26:26;4.93;;;3.40;;
16792;SDS011;8513;42.662;23.350;2023-04-15T02:28:52;4.63;;;3.47;;
16792;SDS011;8513;42.662;23.350;2023-04-15T02:31:18;5.25;;;3.58;;
16792;SDS011;8513;42.662;23.350;2023-04-15T02:33:45;5.27;;;3.63;;
16792;SDS011;8513;42.662;23.350;2023-04-15T02:36:11;4.33;;;3.70;;
16792;SDS011;8513;42.662;23.350;2023-04-15T02:38:40;3.37;;;3.03;;
16792;SDS011;8513;42.662;23.350;2023-04-15T02:41:07;3.97;;;3.37;;
16792;SDS011;8513;42.662;23.350;2023-04-15T02:43:33;4.13;;;3.40;;
16792;SDS011;8513;42.662;23.350;2023-04-15T02:45:59;5.80;;;3.77;;
16792;SDS011;8513;42.662;23.350;2023-04-15T02:48:24;4.87;;;3.77;;
16792;SDS011;8513;42.662;23.350;2023-04-15T02:50:50;4.37;;;3.97;;
16792;SDS011;8513;42.662;23.350;2023-04-15T02:53:15;6.07;;;3.77;;
16792;SDS011;8513;42.662;23.350;2023-04-15T02:55:41;4.00;;;3.60;;
16792;SDS011;8513;42.662;23.350;2023-04-15T02:58:06;5.33;;;3.93;;
16792;SDS011;8513;42.662;23.350;2023-04-15T03:00:32;9.40;;;4.40;;
16792;SDS011;8513;42.662;23.350;2023-04-15T03:03:00;6.00;;;4.10;;
16792;SDS011;8513;42.662;23.350;2023-04-15T03:05:27;6.50;;;4.43;;
16792;SDS011;8513;42.662;23.350;2023-04-15T03:07:53;4.22;;;3.72;;
16792;SDS011;8513;42.662;23.350;2023-04-15T03:10:18;9.13;;;4.77;;
16792;SDS011;8513;42.662;23.350;2023-04-15T03:12:44;7.50;;;4.80;;
16792;SDS011;8513;42.662;23.350;2023-04-15T03:15:10;6.15;;;4.78;;
16792;SDS011;8513;42.662;23.350;2023-04-15T03:17:36;10.13;;;5.43;;
16792;SDS011;8513;42.662;23.350;2023-04-15T03:20:02;7.07;;;4.90;;
16792;SDS011;8513;42.662;23.350;2023-04-15T03:22:29;5.80;;;4.70;;
16792;SDS011;8513;42.662;23.350;2023-04-15T03:24:57;6.27;;;4.37;;
16792;SDS011;8513;42.662;23.350;2023-04-15T03:27:23;5.00;;;4.50;;
16792;SDS011;8513;42.662;23.350;2023-04-15T03:29:49;7.93;;;5.03;;
16792;SDS011;8513;42.662;23.350;2023-04-15T03:32:14;5.43;;;4.60;;
16792;SDS011;8513;42.662;23.350;2023-04-15T03:34:40;5.70;;;4.80;;
16792;SDS011;8513;42.662;23.350;2023-04-15T03:37:06;6.87;;;4.87;;
16792;SDS011;8513;42.662;23.350;2023-04-15T03:39:32;5.53;;;4.73;;
16792;SDS011;8513;42.662;23.350;2023-04-15T03:41:58;8.20;;;5.30;;
16792;SDS011;8513;42.662;23.350;2023-04-15T03:44:25;7.53;;;5.13;;
16792;SDS011;8513;42.662;23.350;2023-04-15T03:46:50;6.90;;;5.10;;
16792;SDS011;8513;42.662;23.350;2023-04-15T03:49:16;6.57;;;5.13;;
16792;SDS011;8513;42.662;23.350;2023-04-15T03:51:43;6.67;;;5.03;;
16792;SDS011;8513;42.662;23.350;2023-04-15T03:54:08;5.93;;;5.33;;
16792;SDS011;8513;42.662;23.350;2023-04-15T03:56:34;7.17;;;6.03;;
16792;SDS011;8513;42.662;23.350;2023-04-15T03:59:00;7.30;;;5.80;;
16792;SDS011;8513;42.662;23.350;2023-04-15T04:01:25;6.33;;;5.70;;
16792;SDS011;8513;42.662;23.350;2023-04-15T04:03:50;6.83;;;5.70;;
16792;SDS011;8513;42.662;23.350;2023-04-15T04:06:16;9.80;;;5.97;;
16792;SDS011;8513;42.662;23.350;2023-04-15T04:08:41;6.37;;;5.70;;
16792;SDS011;8513;42.662;23.350;2023-04-15T04:11:07;7.80;;;5.13;;
16792;SDS011;8513;42.662;23.350;2023-04-15T04:13:33;8.60;;;5.80;;
16792;SDS011;8513;42.662;23.350;2023-04-15T04:15:58;7.03;;;6.33;;
16792;SDS011;8513;42.662;23.350;2023-04-15T04:18:23;7.73;;;5.80;;
16792;SDS011;8513;42.662;23.350;2023-04-15T04:20:49;8.90;;;5.77;;
16792;SDS011;8513;42.662;23.350;2023-04-15T04:23:14;7.73;;;5.33;;
16792;SDS011;8513;42.662;23.350;2023-04-15T04:25:40;6.80;;;6.20;;
16792;SDS011;8513;42.662;23.350;2023-04-15T04:28:06;7.73;;;6.57;;
16792;SDS011;8513;42.662;23.350;2023-04-15T04:30:32;6.53;;;5.53;;
16792;SDS011;8513;42.662;23.350;2023-04-15T04:32:57;7.77;;;6.57;;
16792;SDS011;8513;42.662;23.350;2023-04-15T04:35:23;7.60;;;6.30;;
16792;SDS011;8513;42.662;23.350;2023-04-15T04:37:48;7.03;;;6.23;;
16792;SDS011;8513;42.662;23.350;2023-04-15T04:40:14;8.53;;;5.90;;
16792;SDS011;8513;42.662;23.350;2023-04-15T04:42:40;9.07;;;7.00;;
16792;SDS011;8513;42.662;23.350;2023-04-15T04:45:05;8.00;;;7.20;;
16792;SDS011;8513;42.662;23.350;2023-04-15T04:47:31;7.57;;;6.83;;
16792;SDS011;8513;42.662;23.350;2023-04-15T04:49:57;10.07;;;8.20;;
16792;SDS011;8513;42.662;23.350;2023-04-15T04:52:22;8.23;;;7.40;;
16792;SDS011;8513;42.662;23.350;2023-04-15T04:54:48;10.97;;;7.43;;
16792;SDS011;8513;42.662;23.350;2023-04-15T04:57:13;8.83;;;7.97;;
16792;SDS011;8513;42.662;23.350;2023-04-15T04:59:38;9.60;;;7.53;;
16792;SDS011;8513;42.662;23.350;2023-04-15T05:02:04;9.47;;;8.50;;
16792;SDS011;8513;42.662;23.350;2023-04-15T05:04:30;10.23;;;8.13;;
16792;SDS011;8513;42.662;23.350;2023-04-15T05:06:56;8.20;;;7.13;;
16792;SDS011;8513;42.662;23.350;2023-04-15T05:09:22;9.93;;;7.43;;
16792;SDS011;8513;42.662;23.350;2023-04-15T05:11:47;10.77;;;8.13;;
16792;SDS011;8513;42.662;23.350;2023-04-15T05:14:13;8.23;;;7.33;;
16792;SDS011;8513;42.662;23.350;2023-04-15T05:16:38;9.10;;;7.63;;
16792;SDS011;8513;42.662;23.350;2023-04-15T05:19:03;9.20;;;7.27;;
16792;SDS011;8513;42.662;23.350;2023-04-15T05:21:29;9.87;;;7.43;;
16792;SDS011;8513;42.662;23.350;2023-04-15T05:23:55;10.47;;;7.23;;
16792;SDS011;8513;42.662;23.350;2023-04-15T05:26:21;7.53;;;6.67;;
16792;SDS011;8513;42.662;23.350;2023-04-15T05:28:46;6.93;;;6.20;;
16792;SDS011;8513;42.662;23.350;2023-04-15T05:31:12;10.80;;;6.47;;
16792;SDS011;8513;42.662;23.350;2023-04-15T05:33:38;10.33;;;6.37;;
16792;SDS011;8513;42.662;23.350;2023-04-15T05:36:04;9.60;;;6.83;;
16792;SDS011;8513;42.662;23.350;2023-04-15T05:38:30;8.33;;;6.43;;
16792;SDS011;8513;42.662;23.350;2023-04-15T05:40:55;8.83;;;5.80;;
16792;SDS011;8513;42.662;23.350;2023-04-15T05:43:21;7.77;;;5.97;;
16792;SDS011;8513;42.662;23.350;2023-04-15T05:45:46;7.87;;;6.13;;
16792;SDS011;8513;42.662;23.350;2023-04-15T05:48:12;6.17;;;5.37;;
16792;SDS011;8513;42.662;23.350;2023-04-15T05:50:39;5.97;;;5.27;;
16792;SDS011;8513;42.662;23.350;2023-04-15T05:53:06;6.67;;;5.30;;
16792;SDS011;8513;42.662;23.350;2023-04-15T05:55:32;7.72;;;6.13;;
16792;SDS011;8513;42.662;23.350;2023-04-15T05:57:57;9.55;;;5.93;;
16792;SDS011;8513;42.662;23.350;2023-04-15T06:00:23;5.60;;;5.10;;
16792;SDS011;8513;42.662;23.350;2023-04-15T06:02:48;5.95;;;4.85;;
16792;SDS011;8513;42.662;23.350;2023-04-15T06:05:14;4.70;;;4.27;;
16792;SDS011;8513;42.662;23.350;2023-04-15T06:07:40;5.20;;;3.90;;
16792;SDS011;8513;42.662;23.350;2023-04-15T06:10:05;5.50;;;4.22;;
16792;SDS011;8513;42.662;23.350;2023-04-15T06:12:31;6.82;;;4.82;;
16792;SDS011;8513;42.662;23.350;2023-04-15T06:14:57;6.07;;;4.90;;
16792;SDS011;8513;42.662;23.350;2023-04-15T06:17:22;7.83;;;5.40;;
16792;SDS011;8513;42.662;23.350;2023-04-15T06:19:48;6.27;;;5.20;;
16792;SDS011;8513;42.662;23.350;2023-04-15T06:22:15;5.65;;;5.13;;
16792;SDS011;8513;42.662;23.350;2023-04-15T06:24:41;6.33;;;5.67;;
16792;SDS011;8513;42.662;23.350;2023-04-15T06:27:06;6.72;;;5.18;;
16792;SDS011;8513;42.662;23.350;2023-04-15T06:29:32;6.47;;;4.90;;
16792;SDS011;8513;42.662;23.350;2023-04-15T06:31:57;5.47;;;4.28;;
16792;SDS011;8513;42.662;23.350;2023-04-15T06:34:23;5.97;;;4.15;;
16792;SDS011;8513;42.662;23.350;2023-04-15T06:36:48;4.68;;;4.10;;
16792;SDS011;8513;42.662;23.350;2023-04-15T06:39:14;6.43;;;3.40;;
16792;SDS011;8513;42.662;23.350;2023-04-15T06:41:40;5.43;;;3.45;;
16792;SDS011;8513;42.662;23.350;2023-04-15T06:44:05;6.22;;;4.38;;
16792;SDS011;8513;42.662;23.350;2023-04-15T06:46:31;7.32;;;4.55;;
16792;SDS011;8513;42.662;23.350;2023-04-15T06:48:56;6.60;;;4.00;;
16792;SDS011;8513;42.662;23.350;2023-04-15T06:51:22;6.63;;;3.97;;
16792;SDS011;8513;42.662;23.350;2023-04-15T06:53:48;5.18;;;3.95;;
16792;SDS011;8513;42.662;23.350;2023-04-15T06:56:13;5.10;;;4.03;;
16792;SDS011;8513;42.662;23.350;2023-04-15T06:58:38;7.88;;;3.90;;
16792;SDS011;8513;42.662;23.350;2023-04-15T07:01:04;8.15;;;4.25;;
16792;SDS011;8513;42.662;23.350;2023-04-15T07:03:30;5.03;;;3.90;;
16792;SDS011;8513;42.662;23.350;2023-04-15T07:05:55;5.68;;;4.47;;
16792;SDS011;8513;42.662;23.350;2023-04-15T07:08:21;5.00;;;4.23;;
16792;SDS011;8513;42.662;23.350;2023-04-15T07:10:47;6.70;;;3.88;;
16792;SDS011;8513;42.662;23.350;2023-04-15T07:13:12;4.30;;;3.85;;
16792;SDS011;8513;42.662;23.350;2023-04-15T07:15:38;8.18;;;4.90;;
16792;SDS011;8513;42.662;23.350;2023-04-15T07:18:03;7.70;;;4.55;;
16792;SDS011;8513;42.662;23.350;2023-04-15T07:20:29;6.13;;;4.38;;
16792;SDS011;8513;42.662;23.350;2023-04-15T07:22:54;4.93;;;3.97;;
16792;SDS011;8513;42.662;23.350;2023-04-15T07:25:20;4.72;;;4.18;;
16792;SDS011;8513;42.662;23.350;2023-04-15T07:27:45;6.97;;;4.20;;
16792;SDS011;8513;42.662;23.350;2023-04-15T07:30:11;6.00;;;4.28;;
16792;SDS011;8513;42.662;23.350;2023-04-15T07:32:37;5.78;;;3.85;;
16792;SDS011;8513;42.662;23.350;2023-04-15T07:35:02;5.10;;;3.50;;
16792;SDS011;8513;42.662;23.350;2023-04-15T07:37:28;5.80;;;4.25;;
16792;SDS011;8513;42.662;23.350;2023-04-15T07:39:54;6.00;;;4.10;;
16792;SDS011;8513;42.662;23.350;2023-04-15T07:42:20;4.85;;;3.70;;
16792;SDS011;8513;42.662;23.350;2023-04-15T07:44:46;5.30;;;3.40;;
16792;SDS011;8513;42.662;23.350;2023-04-15T07:47:11;5.22;;;3.63;;
16792;SDS011;8513;42.662;23.350;2023-04-15T07:49:37;9.38;;;3.70;;
16792;SDS011;8513;42.662;23.350;2023-04-15T07:52:02;4.60;;;3.53;;
16792;SDS011;8513;42.662;23.350;2023-04-15T07:54:28;5.00;;;3.42;;
16792;SDS011;8513;42.662;23.350;2023-04-15T07:56:53;4.68;;;3.53;;
16792;SDS011;8513;42.662;23.350;2023-04-15T07:59:20;6.32;;;3.95;;
16792;SDS011;8513;42.662;23.350;2023-04-15T08:01:45;7.20;;;4.20;;
16792;SDS011;8513;42.662;23.350;2023-04-15T08:04:11;8.68;;;3.88;;
16792;SDS011;8513;42.662;23.350;2023-04-15T08:06:36;4.43;;;3.50;;
16792;SDS011;8513;42.662;23.350;2023-04-15T08:09:03;6.22;;;3.90;;
16792;SDS011;8513;42.662;23.350;2023-04-15T08:11:30;6.13;;;3.25;;
16792;SDS011;8513;42.662;23.350;2023-04-15T08:13:55;5.45;;;3.35;;
16792;SDS011;8513;42.662;23.350;2023-04-15T08:16:24;5.38;;;3.33;;
16792;SDS011;8513;42.662;23.350;2023-04-15T08:18:52;5.78;;;3.35;;
16792;SDS011;8513;42.662;23.350;2023-04-15T08:21:19;4.07;;;2.97;;
16792;SDS011;8513;42.662;23.350;2023-04-15T08:23:46;5.10;;;3.30;;
16792;SDS011;8513;42.662;23.350;2023-04-15T08:26:13;8.00;;;2.97;;
16792;SDS011;8513;42.662;23.350;2023-04-15T08:28:41;5.45;;;3.17;;
16792;SDS011;8513;42.662;23.350;2023-04-15T08:31:07;5.70;;;3.17;;
16792;SDS011;8513;42.662;23.350;2023-04-15T08:33:33;4.97;;;3.20;;
16792;SDS011;8513;42.662;23.350;2023-04-15T08:35:59;4.88;;;3.00;;
16792;SDS011;8513;42.662;23.350;2023-04-15T08:38:24;3.85;;;2.53;;
16792;SDS011;8513;42.662;23.350;2023-04-15T08:40:50;5.13;;;2.13;;
16792;SDS011;8513;42.662;23.350;2023-04-15T08:43:22;2.60;;;2.05;;
16792;SDS011;8513;42.662;23.350;2023-04-15T08:45:52;4.80;;;1.90;;
16792;SDS011;8513;42.662;23.350;2023-04-15T08:48:19;3.20;;;2.15;;
16792;SDS011;8513;42.662;23.350;2023-04-15T08:50:45;3.95;;;2.33;;
16792;SDS011;8513;42.662;23.350;2023-04-15T08:53:11;4.47;;;2.38;;
16792;SDS011;8513;42.662;23.350;2023-04-15T08:55:44;3.50;;;2.15;;
16792;SDS011;8513;42.662;23.350;2023-04-15T08:58:14;3.45;;;1.73;;
16792;SDS011;8513;42.662;23.350;2023-04-15T09:00:40;5.07;;;2.50;;
16792;SDS011;8513;42.662;23.350;2023-04-15T09:03:06;4.25;;;2.60;;
16792;SDS011;8513;42.662;23.350;2023-04-15T09:05:33;3.25;;;2.22;;
16792;SDS011;8513;42.662;23.350;2023-04-15T09:08:00;2.38;;;1.88;;
16792;SDS011;8513;42.662;23.350;2023-04-15T09:10:26;4.00;;;2.30;;
16792;SDS011;8513;42.662;23.350;2023-04-15T09:12:52;4.22;;;2.25;;
16792;SDS011;8513;42.662;23.350;2023-04-15T09:15:18;2.60;;;1.73;;
16792;SDS011;8513;42.662;23.350;2023-04-15T09:17:44;6.20;;;1.70;;
16792;SDS011;8513;42.662;23.350;2023-04-15T09:20:11;3.28;;;2.30;;
16792;SDS011;8513;42.662;23.350;2023-04-15T09:22:38;3.05;;;1.75;;
16792;SDS011;8513;42.662;23.350;2023-04-15T09:25:16;4.88;;;2.30;;
16792;SDS011;8513;42.662;23.350;2023-04-15T09:27:51;2.67;;;2.13;;
16792;SDS011;8513;42.662;23.350;2023-04-15T09:30:26;3.55;;;1.73;;
16792;SDS011;8513;42.662;23.350;2023-04-15T09:32:56;3.30;;;1.80;;
16792;SDS011;8513;42.662;23.350;2023-04-15T09:35:23;4.30;;;1.63;;
16792;SDS011;8513;42.662;23.350;2023-04-15T09:37:51;4.57;;;1.80;;
16792;SDS011;8513;42.662;23.350;2023-04-15T09:40:36;2.80;;;1.60;;
16792;SDS011;8513;42.662;23.350;2023-04-15T09:43:04;4.97;;;1.98;;
16792;SDS011;8513;42.662;23.350;2023-04-15T09:45:31;2.03;;;1.52;;
16792;SDS011;8513;42.662;23.350;2023-04-15T09:47:57;4.57;;;1.67;;
16792;SDS011;8513;42.662;23.350;2023-04-15T09:50:27;4.45;;;1.40;;
16792;SDS011;8513;42.662;23.350;2023-04-15T09:52:53;1.85;;;1.45;;
16792;SDS011;8513;42.662;23.350;2023-04-15T09:55:19;2.08;;;1.40;;
16792;SDS011;8513;42.662;23.350;2023-04-15T09:57:45;2.35;;;1.60;;
16792;SDS011;8513;42.662;23.350;2023-04-15T10:00:14;3.42;;;1.73;;
16792;SDS011;8513;42.662;23.350;2023-04-15T10:02:40;2.35;;;1.50;;
16792;SDS011;8513;42.662;23.350;2023-04-15T10:05:06;2.13;;;1.10;;
16792;SDS011;8513;42.662;23.350;2023-04-15T10:07:34;4.03;;;1.15;;
16792;SDS011;8513;42.662;23.350;2023-04-15T10:10:00;3.65;;;1.08;;
16792;SDS011;8513;42.662;23.350;2023-04-15T10:12:27;1.38;;;1.13;;
16792;SDS011;8513;42.662;23.350;2023-04-15T10:15:02;1.63;;;0.93;;
16792;SDS011;8513;42.662;23.350;2023-04-15T10:17:29;1.52;;;0.98;;
16792;SDS011;8513;42.662;23.350;2023-04-15T10:20:01;1.25;;;0.88;;
16792;SDS011;8513;42.662;23.350;2023-04-15T10:22:28;1.65;;;0.95;;
16792;SDS011;8513;42.662;23.350;2023-04-15T10:24:55;2.45;;;1.23;;
16792;SDS011;8513;42.662;23.350;2023-04-15T10:27:20;2.17;;;1.10;;
16792;SDS011;8513;42.662;23.350;2023-04-15T10:29:47;2.25;;;1.00;;
16792;SDS011;8513;42.662;23.350;2023-04-15T10:32:14;1.25;;;0.70;;
16792;SDS011;8513;42.662;23.350;2023-04-15T10:34:42;2.38;;;0.95;;
16792;SDS011;8513;42.662;23.350;2023-04-15T10:37:09;2.35;;;1.02;;
16792;SDS011;8513;42.662;23.350;2023-04-15T10:42:08;1.10;;;0.98;;
16792;SDS011;8513;42.662;23.350;2023-04-15T10:44:38;1.77;;;0.93;;
16792;SDS011;8513;42.662;23.350;2023-04-15T10:47:10;2.38;;;1.30;;
16792;SDS011;8513;42.662;23.350;2023-04-15T10:49:44;2.40;;;1.08;;
16792;SDS011;8513;42.662;23.350;2023-04-15T10:52:11;1.10;;;1.00;;
16792;SDS011;8513;42.662;23.350;2023-04-15T10:54:38;1.65;;;0.93;;
16792;SDS011;8513;42.662;23.350;2023-04-15T10:59:58;1.67;;;1.10;;
16792;SDS011;8513;42.662;23.350;2023-04-15T11:02:51;1.33;;;0.90;;
16792;SDS011;8513;42.662;23.350;2023-04-15T11:05:17;2.38;;;1.10;;
16792;SDS011;8513;42.662;23.350;2023-04-15T11:12:50;1.80;;;1.10;;
16792;SDS011;8513;42.662;23.350;2023-04-15T11:17:57;1.88;;;1.10;;
16792;SDS011;8513;42.662;23.350;2023-04-15T11:20:36;2.13;;;1.10;;
16792;SDS011;8513;42.662;23.350;2023-04-15T11:23:03;1.70;;;1.00;;
16792;SDS011;8513;42.662;23.350;2023-04-15T11:25:30;1.60;;;0.88;;
16792;SDS011;8513;42.662;23.350;2023-04-15T11:27:57;1.55;;;1.10;;
16792;SDS011;8513;42.662;23.350;2023-04-15T11:30:24;2.75;;;0.93;;
16792;SDS011;8513;42.662;23.350;2023-04-15T11:32:51;0.98;;;0.85;;
16792;SDS011;8513;42.662;23.350;2023-04-15T11:35:19;4.22;;;0.70;;
16792;SDS011;8513;42.662;23.350;2023-04-15T11:37:45;1.50;;;1.00;;
16792;SDS011;8513;42.662;23.350;2023-04-15T11:40:11;1.77;;;0.70;;
16792;SDS011;8513;42.662;23.350;2023-04-15T11:42:37;1.08;;;0.70;;
16792;SDS011;8513;42.662;23.350;2023-04-15T11:47:35;2.28;;;2.05;;
16792;SDS011;8513;42.662;23.350;2023-04-15T11:50:15;2.15;;;1.25;;
16792;SDS011;8513;42.662;23.350;2023-04-15T11:52:41;1.73;;;1.10;;
16792;SDS011;8513;42.662;23.350;2023-04-15T11:55:26;2.17;;;1.10;;
16792;SDS011;8513;42.662;23.350;2023-04-15T11:58:05;1.58;;;0.82;;
16792;SDS011;8513;42.662;23.350;2023-04-15T12:00:32;1.05;;;0.95;;
16792;SDS011;8513;42.662;23.350;2023-04-15T12:11:32;1.85;;;0.88;;
16792;SDS011;8513;42.662;23.350;2023-04-15T12:16:24;0.93;;;0.88;;
16792;SDS011;8513;42.662;23.350;2023-04-15T12:18:50;2.38;;;0.82;;
16792;SDS011;8513;42.662;23.350;2023-04-15T12:21:19;1.13;;;0.88;;
16792;SDS011;8513;42.662;23.350;2023-04-15T12:23:50;1.45;;;0.80;;
16792;SDS011;8513;42.662;23.350;2023-04-15T12:26:17;1.67;;;1.05;;
16792;SDS011;8513;42.662;23.350;2023-04-15T12:28:43;2.80;;;1.35;;
16792;SDS011;8513;42.662;23.350;2023-04-15T12:31:09;1.65;;;0.93;;
16792;SDS011;8513;42.662;23.350;2023-04-15T12:33:35;3.17;;;1.10;;
16792;SDS011;8513;42.662;23.350;2023-04-15T12:36:01;1.48;;;1.00;;
16792;SDS011;8513;42.662;23.350;2023-04-15T12:38:27;2.88;;;0.80;;
16792;SDS011;8513;42.662;23.350;2023-04-15T12:40:53;1.23;;;0.82;;
16792;SDS011;8513;42.662;23.350;2023-04-15T12:43:19;4.45;;;1.17;;
16792;SDS011;8513;42.662;23.350;2023-04-15T12:45:44;2.58;;;1.13;;
16792;SDS011;8513;42.662;23.350;2023-04-15T12:48:10;1.85;;;1.02;;
16792;SDS011;8513;42.662;23.350;2023-04-15T12:50:35;1.58;;;0.70;;
16792;SDS011;8513;42.662;23.350;2023-04-15T12:53:01;2.05;;;0.88;;
16792;SDS011;8513;42.662;23.350;2023-04-15T12:55:27;1.88;;;1.00;;
16792;SDS011;8513;42.662;23.350;2023-04-15T12:57:54;0.85;;;0.75;;
16792;SDS011;8513;42.662;23.350;2023-04-15T13:00:21;1.67;;;0.82;;
16792;SDS011;8513;42.662;23.350;2023-04-15T13:02:46;1.05;;;0.95;;
16792;SDS011;8513;42.662;23.350;2023-04-15T13:05:12;2.35;;;0.80;;
16792;SDS011;8513;42.662;23.350;2023-04-15T13:07:38;1.30;;;0.90;;
16792;SDS011;8513;42.662;23.350;2023-04-15T13:10:04;1.23;;;0.80;;
16792;SDS011;8513;42.662;23.350;2023-04-15T13:12:31;1.23;;;1.00;;
16792;SDS011;8513;42.662;23.350;2023-04-15T13:15:00;1.58;;;0.93;;
16792;SDS011;8513;42.662;23.350;2023-04-15T13:17:26;2.05;;;0.85;;
16792;SDS011;8513;42.662;23.350;2023-04-15T13:19:52;1.00;;;0.80;;
16792;SDS011;8513;42.662;23.350;2023-04-15T13:22:17;1.30;;;0.75;;
16792;SDS011;8513;42.662;23.350;2023-04-15T13:24:43;3.10;;;1.10;;
16792;SDS011;8513;42.662;23.350;2023-04-15T13:27:08;2.80;;;0.93;;
16792;SDS011;8513;42.662;23.350;2023-04-15T13:29:34;2.08;;;0.80;;
16792;SDS011;8513;42.662;23.350;2023-04-15T13:31:59;1.20;;;0.77;;
16792;SDS011;8513;42.662;23.350;2023-04-15T13:34:25;1.30;;;0.90;;
16792;SDS011;8513;42.662;23.350;2023-04-15T13:36:51;1.27;;;0.90;;
16792;SDS011;8513;42.662;23.350;2023-04-15T13:39:16;1.40;;;0.95;;
16792;SDS011;8513;42.662;23.350;2023-04-15T13:41:41;2.13;;;1.38;;
16792;SDS011;8513;42.662;23.350;2023-04-15T13:44:07;3.38;;;1.15;;
16792;SDS011;8513;42.662;23.350;2023-04-15T13:46:32;2.28;;;1.20;;
16792;SDS011;8513;42.662;23.350;2023-04-15T13:48:58;3.05;;;1.45;;
16792;SDS011;8513;42.662;23.350;2023-04-15T13:51:23;3.65;;;1.40;;
16792;SDS011;8513;42.662;23.350;2023-04-15T13:53:49;1.55;;;0.90;;
16792;SDS011;8513;42.662;23.350;2023-04-15T13:56:14;1.23;;;1.10;;
16792;SDS011;8513;42.662;23.350;2023-04-15T13:58:40;1.75;;;1.00;;
16792;SDS011;8513;42.662;23.350;2023-04-15T14:01:05;1.27;;;1.00;;
16792;SDS011;8513;42.662;23.350;2023-04-15T14:03:31;2.15;;;1.20;;
16792;SDS011;8513;42.662;23.350;2023-04-15T14:05:57;1.15;;;1.00;;
16792;SDS011;8513;42.662;23.350;2023-04-15T14:08:23;2.60;;;1.10;;
16792;SDS011;8513;42.662;23.350;2023-04-15T14:10:49;2.10;;;1.15;;
16792;SDS011;8513;42.662;23.350;2023-04-15T14:13:15;1.20;;;1.10;;
16792;SDS011;8513;42.662;23.350;2023-04-15T14:15:40;1.67;;;0.90;;
16792;SDS011;8513;42.662;23.350;2023-04-15T14:18:06;0.90;;;0.80;;
16792;SDS011;8513;42.662;23.350;2023-04-15T14:20:32;2.42;;;0.85;;
16792;SDS011;8513;42.662;23.350;2023-04-15T14:22:57;1.83;;;1.10;;
16792;SDS011;8513;42.662;23.350;2023-04-15T14:25:23;1.55;;;1.35;;
16792;SDS011;8513;42.662;23.350;2023-04-15T14:27:48;1.40;;;1.02;;
16792;SDS011;8513;42.662;23.350;2023-04-15T14:30:14;1.95;;;1.08;;
16792;SDS011;8513;42.662;23.350;2023-04-15T14:32:40;1.45;;;1.08;;
16792;SDS011;8513;42.662;23.350;2023-04-15T14:35:05;1.00;;;0.90;;
16792;SDS011;8513;42.662;23.350;2023-04-15T14:37:31;1.65;;;1.10;;
16792;SDS011;8513;42.662;23.350;2023-04-15T14:39:57;1.17;;;1.08;;
16792;SDS011;8513;42.662;23.350;2023-04-15T14:42:22;1.70;;;1.10;;
16792;SDS011;8513;42.662;23.350;2023-04-15T14:44:48;2.00;;;1.10;;
16792;SDS011;8513;42.662;23.350;2023-04-15T14:47:14;1.42;;;1.20;;
16792;SDS011;8513;42.662;23.350;2023-04-15T14:49:40;1.77;;;1.27;;
16792;SDS011;8513;42.662;23.350;2023-04-15T14:52:05;2.22;;;1.17;;
16792;SDS011;8513;42.662;23.350;2023-04-15T14:54:31;2.80;;;1.20;;
16792;SDS011;8513;42.662;23.350;2023-04-15T14:56:56;2.22;;;1.20;;
16792;SDS011;8513;42.662;23.350;2023-04-15T14:59:22;2.85;;;1.30;;
16792;SDS011;8513;42.662;23.350;2023-04-15T15:01:47;1.20;;;0.90;;
16792;SDS011;8513;42.662;23.350;2023-04-15T15:04:13;1.45;;;1.10;;
16792;SDS011;8513;42.662;23.350;2023-04-15T15:06:38;1.42;;;1.02;;
16792;SDS011;8513;42.662;23.350;2023-04-15T15:09:04;3.33;;;1.38;;